Time;durP1;ratioP1;P1;durP2;ratioP2;P2;SDS_P1;SDS_P2;PMS_P1;PMS_P2;Temp;Humidity;BMP_temperature;BMP_pressure;BME280_temperature;BME280_humidity;BME280_pressure;Samples;Min_cycle;Max_cycle;Signal;HPM_P1;HPM_P2
2020/12/23 00:01:17;;;;;;;145.30;73.47;;;6.90;99.50;;;;;;5115607;28;20191;-82
2020/12/23 00:03:48;;;;;;;155.18;76.07;;;6.90;99.50;;;;;;5114248;28;20175;-82
2020/12/23 00:06:14;;;;;;;151.40;76.43;;;7.00;99.40;;;;;;5114445;28;20214;-80
2020/12/23 00:08:45;;;;;;;128.60;68.70;;;7.00;99.30;;;;;;5115496;28;20207;-80
2020/12/23 00:11:17;;;;;;;150.43;70.03;;;7.10;99.30;;;;;;5115861;28;20252;-80
2020/12/23 00:13:45;;;;;;;150.68;71.40;;;7.10;99.10;;;;;;5114297;28;20184;-80
2020/12/23 00:16:11;;;;;;;142.02;71.80;;;7.10;99.10;;;;;;5114993;28;20203;-80
2020/12/23 00:18:41;;;;;;;136.83;68.03;;;7.10;99.30;;;;;;5115330;28;20188;-80
2020/12/23 00:21:12;;;;;;;134.32;69.72;;;7.20;99.00;;;;;;5115495;28;20199;-80
2020/12/23 00:23:40;;;;;;;143.32;71.30;;;7.20;99.10;;;;;;5113941;28;20180;-80
2020/12/23 00:26:13;;;;;;;143.82;71.88;;;7.20;99.00;;;;;;5115574;28;20220;-80
2020/12/23 00:28:42;;;;;;;132.65;70.95;;;7.30;98.90;;;;;;5115200;28;20164;-80
2020/12/23 00:31:16;;;;;;;128.63;65.95;;;7.30;98.80;;;;;;5115272;28;20176;-80
2020/12/23 00:33:48;;;;;;;130.73;66.85;;;7.30;98.70;;;;;;5115292;28;20187;-81
2020/12/23 00:36:15;;;;;;;138.40;68.88;;;7.30;98.80;;;;;;5115394;28;20720;-80
2020/12/23 00:38:41;;;;;;;127.85;67.70;;;7.40;98.70;;;;;;5113607;28;20654;-80
2020/12/23 00:41:10;;;;;;;131.10;65.13;;;7.30;98.80;;;;;;5115290;28;20233;-80
2020/12/23 00:43:36;;;;;;;128.57;65.45;;;7.30;98.70;;;;;;5113648;28;20172;-80
2020/12/23 00:46:12;;;;;;;132.93;66.20;;;7.40;98.60;;;;;;5113557;28;20186;-80
2020/12/23 00:48:42;;;;;;;125.80;65.55;;;7.40;98.70;;;;;;5113411;28;20228;-81
2020/12/23 00:51:12;;;;;;;124.20;63.80;;;7.30;98.80;;;;;;5112689;28;20227;-80
2020/12/23 00:53:42;;;;;;;133.68;64.78;;;7.30;98.60;;;;;;5114690;28;20167;-80
2020/12/23 00:56:11;;;;;;;132.18;68.80;;;7.30;98.50;;;;;;5115004;28;20670;-80
2020/12/23 00:58:49;;;;;;;136.55;67.97;;;7.40;98.50;;;;;;5113372;28;20186;-80
2020/12/23 01:01:18;;;;;;;123.78;65.07;;;7.30;98.40;;;;;;5113383;28;20211;-80
2020/12/23 01:03:47;;;;;;;138.80;67.90;;;7.30;98.40;;;;;;5112994;28;20640;-81
2020/12/23 01:06:19;;;;;;;134.07;67.18;;;7.30;98.30;;;;;;5114298;28;20176;-80
2020/12/23 01:08:45;;;;;;;130.63;70.82;;;7.30;98.40;;;;;;5113137;28;20647;-80
2020/12/23 01:11:11;;;;;;;124.13;68.03;;;7.30;98.50;;;;;;5114644;28;20263;-80
2020/12/23 01:13:38;;;;;;;145.25;71.22;;;7.40;98.80;;;;;;5114208;28;20386;-80
2020/12/23 01:16:07;;;;;;;125.65;68.07;;;7.30;98.40;;;;;;5114475;28;20690;-80
2020/12/23 01:18:32;;;;;;;123.72;64.70;;;7.40;98.50;;;;;;5112930;28;20232;-80
2020/12/23 01:20:58;;;;;;;124.30;65.30;;;7.30;98.80;;;;;;5113872;28;20167;-80
2020/12/23 01:23:27;;;;;;;130.33;66.60;;;7.30;98.50;;;;;;5114134;28;20167;-80
2020/12/23 01:25:53;;;;;;;127.30;70.28;;;7.30;98.60;;;;;;5112924;28;20211;-81
2020/12/23 01:28:19;;;;;;;139.80;67.03;;;7.30;98.70;;;;;;5113921;28;20178;-80
2020/12/23 01:30:45;;;;;;;126.77;65.00;;;7.40;98.60;;;;;;5114158;28;20551;-81
2020/12/23 01:33:10;;;;;;;122.77;63.63;;;7.40;98.70;;;;;;5114045;28;20172;-80
2020/12/23 01:35:36;;;;;;;118.60;65.37;;;7.30;98.50;;;;;;5114235;28;20226;-81
2020/12/23 01:38:02;;;;;;;128.80;67.87;;;7.30;98.40;;;;;;5113801;28;20769;-80
2020/12/23 01:40:35;;;;;;;123.22;66.88;;;7.30;98.50;;;;;;5113871;28;20685;-81
2020/12/23 01:43:00;;;;;;;127.40;65.95;;;7.20;98.80;;;;;;5113738;28;20172;-80
2020/12/23 01:45:29;;;;;;;131.97;68.97;;;7.10;98.90;;;;;;5112529;28;20275;-81
2020/12/23 01:47:59;;;;;;;142.35;75.18;;;7.10;98.80;;;;;;5112474;28;20180;-81
2020/12/23 01:50:28;;;;;;;145.55;73.95;;;7.10;99.10;;;;;;5112364;28;20203;-80
2020/12/23 01:52:56;;;;;;;151.70;79.53;;;7.00;98.80;;;;;;5113656;28;20649;-81
2020/12/23 01:55:22;;;;;;;142.27;73.93;;;7.00;98.80;;;;;;5112372;28;20671;-80
2020/12/23 01:57:47;;;;;;;143.63;73.57;;;7.00;98.80;;;;;;5113741;28;20187;-80
2020/12/23 02:00:16;;;;;;;141.53;72.40;;;7.00;98.90;;;;;;5112418;28;20662;-80
2020/12/23 02:02:46;;;;;;;129.10;68.80;;;6.90;99.30;;;;;;5114948;28;20176;-80
2020/12/23 02:05:14;;;;;;;128.00;66.10;;;6.80;99.60;;;;;;5116717;28;20179;-80
2020/12/23 02:07:42;;;;;;;133.55;70.95;;;6.70;99.90;;;;;;5116591;28;20180;-80
2020/12/23 02:10:14;;;;;;;135.35;67.95;;;6.70;99.80;;;;;;5117656;28;20183;-80
2020/12/23 02:12:40;;;;;;;126.47;67.43;;;6.80;99.40;;;;;;5116491;28;20682;-80
2020/12/23 02:15:13;;;;;;;125.93;65.40;;;6.80;99.50;;;;;;5117628;28;20230;-80
2020/12/23 02:17:42;;;;;;;147.50;68.82;;;6.80;99.40;;;;;;5117786;28;20485;-80
2020/12/23 02:20:18;;;;;;;130.93;68.90;;;6.80;99.40;;;;;;5116270;28;20188;-80
2020/12/23 02:22:48;;;;;;;127.38;66.60;;;6.90;99.30;;;;;;5116357;28;20168;-80
2020/12/23 02:25:15;;;;;;;143.48;71.43;;;6.80;99.20;;;;;;5117491;28;20179;-80
2020/12/23 02:27:44;;;;;;;131.43;67.28;;;6.80;99.20;;;;;;5117268;28;20176;-80
2020/12/23 02:30:11;;;;;;;128.32;67.43;;;6.80;99.10;;;;;;5117581;28;20176;-80
2020/12/23 02:32:48;;;;;;;131.95;67.32;;;6.80;99.10;;;;;;5117406;28;20176;-80
2020/12/23 02:35:20;;;;;;;129.82;65.20;;;6.70;99.20;;;;;;5117567;28;20202;-80
2020/12/23 02:37:46;;;;;;;128.82;66.95;;;6.80;99.20;;;;;;5116044;28;20271;-80
2020/12/23 02:40:17;;;;;;;129.80;64.17;;;6.80;99.30;;;;;;5116227;28;20603;-80
2020/12/23 02:42:47;;;;;;;126.45;64.88;;;6.80;98.90;;;;;;5115834;28;20172;-80
2020/12/23 02:45:14;;;;;;;133.73;68.00;;;6.70;98.90;;;;;;5117497;28;20279;-80
2020/12/23 02:47:40;;;;;;;121.30;62.85;;;6.80;99.00;;;;;;5115884;28;20184;-80
2020/12/23 02:50:14;;;;;;;130.63;65.00;;;6.70;98.80;;;;;;5117219;28;20634;-80
2020/12/23 02:52:43;;;;;;;116.00;62.80;;;6.70;98.70;;;;;;5116954;28;20238;-80
2020/12/23 02:55:09;;;;;;;127.38;66.82;;;6.70;98.70;;;;;;5115629;28;20548;-80
2020/12/23 02:57:34;;;;;;;121.40;62.40;;;6.70;98.50;;;;;;5115586;28;20205;-80
2020/12/23 03:00:00;;;;;;;119.87;63.37;;;6.50;98.70;;;;;;5116850;28;20229;-80
2020/12/23 03:02:28;;;;;;;129.70;64.60;;;6.50;98.40;;;;;;5116776;27;20219;-80
2020/12/23 03:04:54;;;;;;;128.57;65.75;;;6.50;98.70;;;;;;5116731;28;20171;-80
2020/12/23 03:07:25;;;;;;;130.83;67.23;;;6.50;98.50;;;;;;5115449;28;20309;-80
2020/12/23 03:09:54;;;;;;;123.90;66.55;;;6.50;98.50;;;;;;5116845;28;20637;-80
2020/12/23 03:12:20;;;;;;;126.43;63.15;;;6.50;98.40;;;;;;5116042;28;20180;-80
2020/12/23 03:14:54;;;;;;;120.17;65.90;;;6.50;98.20;;;;;;5115126;28;20572;-80
2020/12/23 03:17:20;;;;;;;113.47;59.88;;;6.40;98.30;;;;;;5116493;28;20202;-80
2020/12/23 03:19:48;;;;;;;101.20;59.70;;;6.40;97.90;;;;;;5116482;28;20180;-80
2020/12/23 03:22:21;;;;;;;107.80;60.75;;;6.50;98.10;;;;;;5115187;28;20741;-82
2020/12/23 03:24:46;;;;;;;95.95;56.17;;;6.40;98.20;;;;;;5116359;27;20313;-82
2020/12/23 03:27:18;;;;;;;117.10;61.87;;;6.30;98.10;;;;;;5116331;28;20259;-82
2020/12/23 03:29:43;;;;;;;109.07;60.60;;;6.40;98.10;;;;;;5114865;28;20190;-82
2020/12/23 03:32:09;;;;;;;120.20;64.13;;;6.40;98.10;;;;;;5114817;28;20187;-83
2020/12/23 03:34:37;;;;;;;144.60;76.23;;;6.30;98.20;;;;;;5114977;28;20231;-83
2020/12/23 03:37:03;;;;;;;147.75;73.18;;;6.30;98.60;;;;;;5114894;28;20176;-82
2020/12/23 03:39:32;;;;;;;145.37;75.80;;;6.40;98.70;;;;;;5114750;28;20546;-83
2020/12/23 03:41:57;;;;;;;144.88;73.70;;;6.40;98.90;;;;;;5114626;28;20184;-82
2020/12/23 03:44:23;;;;;;;133.83;71.53;;;6.40;99.10;;;;;;5114751;28;20264;-82
2020/12/23 03:46:48;;;;;;;127.80;69.13;;;6.30;99.40;;;;;;5116044;28;20179;-83
2020/12/23 03:49:17;;;;;;;131.97;70.40;;;6.30;99.60;;;;;;5115959;28;20221;-82
2020/12/23 03:51:48;;;;;;;136.13;70.93;;;6.30;99.60;;;;;;5115517;27;20226;-82
2020/12/23 03:54:14;;;;;;;131.75;74.75;;;6.30;99.70;;;;;;5115751;28;20156;-83
2020/12/23 03:56:39;;;;;;;152.40;73.97;;;6.40;99.80;;;;;;5116280;28;20557;-82
2020/12/23 03:59:05;;;;;;;150.37;76.97;;;6.40;99.70;;;;;;5115763;28;20167;-83
2020/12/23 04:01:31;;;;;;;152.53;78.63;;;6.40;99.80;;;;;;5115023;28;20221;-83
2020/12/23 04:03:59;;;;;;;148.73;79.10;;;6.50;99.80;;;;;;5115541;28;20195;-82
2020/12/23 04:06:27;;;;;;;149.88;79.35;;;6.50;99.90;;;;;;5114746;28;20180;-82
2020/12/23 04:08:53;;;;;;;145.57;82.15;;;6.50;99.90;;;;;;5115845;27;20220;-82
2020/12/23 04:11:19;;;;;;;160.13;81.37;;;6.50;99.90;;;;;;5116002;28;20180;-83
2020/12/23 04:13:51;;;;;;;166.70;85.60;;;6.50;99.90;;;;;;5114360;28;20184;-83
2020/12/23 04:16:16;;;;;;;149.93;78.80;;;6.50;99.90;;;;;;5115962;28;20255;-82
2020/12/23 04:18:51;;;;;;;147.93;80.90;;;6.50;99.90;;;;;;5114069;28;20266;-82
2020/12/23 04:21:19;;;;;;;139.13;74.85;;;6.50;99.90;;;;;;5115748;28;20312;-83
2020/12/23 04:23:45;;;;;;;153.55;91.85;;;6.50;99.90;;;;;;5113536;28;20226;-83
2020/12/23 04:26:16;;;;;;;160.07;92.93;;;6.60;99.90;;;;;;5114934;28;20635;-83
2020/12/23 04:28:42;;;;;;;131.70;71.03;;;6.60;99.90;;;;;;5113851;28;20228;-82
2020/12/23 04:31:10;;;;;;;123.87;67.80;;;6.50;99.90;;;;;;5115278;28;20267;-83
2020/12/23 04:33:39;;;;;;;135.95;74.00;;;6.50;99.90;;;;;;5114995;28;20214;-83
2020/12/23 04:36:07;;;;;;;141.57;73.57;;;6.40;99.90;;;;;;5115281;28;20529;-82
2020/12/23 04:38:33;;;;;;;137.52;76.18;;;6.50;99.90;;;;;;5115000;28;20207;-82
2020/12/23 04:41:02;;;;;;;138.60;74.33;;;6.40;99.90;;;;;;5115174;28;20168;-82
2020/12/23 04:43:27;;;;;;;133.27;67.75;;;6.40;99.90;;;;;;5113479;28;20183;-82
2020/12/23 04:45:53;;;;;;;132.77;69.10;;;6.40;99.90;;;;;;5115086;28;20179;-83
2020/12/23 04:48:26;;;;;;;136.20;74.80;;;6.40;99.90;;;;;;5113437;28;20184;-83
2020/12/23 04:50:55;;;;;;;138.85;75.90;;;6.50;99.90;;;;;;5114376;28;20725;-81
2020/12/23 04:53:27;;;;;;;138.55;73.18;;;6.60;99.90;;;;;;5113422;28;20221;-80
2020/12/23 04:55:53;;;;;;;126.85;71.97;;;6.60;99.90;;;;;;5114874;28;20203;-81
2020/12/23 04:58:18;;;;;;;136.43;72.07;;;6.60;99.90;;;;;;5114496;28;20509;-80
2020/12/23 05:00:47;;;;;;;130.40;71.20;;;6.60;99.90;;;;;;5114772;28;20168;-80
2020/12/23 05:03:19;;;;;;;134.35;69.95;;;6.60;99.90;;;;;;5114449;28;20573;-80
2020/12/23 05:05:44;;;;;;;136.80;71.90;;;6.60;99.90;;;;;;5114748;28;20580;-81
2020/12/23 05:08:10;;;;;;;144.07;77.80;;;6.70;99.90;;;;;;5114404;28;20180;-80
2020/12/23 05:10:37;;;;;;;132.87;77.70;;;6.70;99.90;;;;;;5114633;28;20172;-80
2020/12/23 05:13:07;;;;;;;131.43;75.78;;;6.70;99.90;;;;;;5113127;28;20274;-80
2020/12/23 05:15:34;;;;;;;142.77;77.40;;;6.80;99.90;;;;;;5114520;28;20672;-80
2020/12/23 05:18:03;;;;;;;123.38;73.60;;;6.70;99.90;;;;;;5114348;28;20175;-80
2020/12/23 05:20:29;;;;;;;116.80;69.88;;;6.80;99.90;;;;;;5112934;28;20182;-80
2020/12/23 05:22:58;;;;;;;136.07;73.75;;;6.70;99.90;;;;;;5112840;28;20592;-80
2020/12/23 05:25:23;;;;;;;128.05;74.85;;;6.60;99.90;;;;;;5114440;28;20250;-80
2020/12/23 05:27:52;;;;;;;131.80;71.87;;;6.60;99.90;;;;;;5114118;28;20230;-80
2020/12/23 05:30:19;;;;;;;123.90;71.00;;;6.60;99.90;;;;;;5112983;28;20516;-80
2020/12/23 05:32:46;;;;;;;125.82;71.53;;;6.70;99.90;;;;;;5112761;28;20219;-80
2020/12/23 05:35:14;;;;;;;122.85;68.15;;;6.70;99.90;;;;;;5114062;28;20715;-80
2020/12/23 05:37:46;;;;;;;117.93;67.93;;;6.70;99.90;;;;;;5112664;28;20187;-80
2020/12/23 05:40:15;;;;;;;121.22;68.68;;;6.60;99.90;;;;;;5112688;28;20187;-80
2020/12/23 05:42:41;;;;;;;120.18;69.15;;;6.70;99.90;;;;;;5112664;28;20180;-79
2020/12/23 05:45:10;;;;;;;123.82;74.30;;;6.80;99.90;;;;;;5112630;28;20182;-80
2020/12/23 05:47:38;;;;;;;126.88;71.30;;;6.80;99.90;;;;;;5113939;28;20184;-81
2020/12/23 05:50:10;;;;;;;104.57;60.85;;;6.90;99.90;;;;;;5112385;28;20197;-81
2020/12/23 05:52:36;;;;;;;122.57;71.72;;;6.90;99.90;;;;;;5112563;28;20231;-80
2020/12/23 05:55:02;;;;;;;110.30;59.93;;;6.90;99.90;;;;;;5112481;28;20218;-80
2020/12/23 05:57:37;;;;;;;112.60;61.17;;;6.80;99.90;;;;;;5113837;28;20543;-80
2020/12/23 06:00:09;;;;;;;104.93;60.03;;;6.80;99.90;;;;;;5112427;28;20171;-80
2020/12/23 06:02:53;;;;;;;108.00;60.08;;;6.90;99.90;;;;;;5113784;28;20156;-80
2020/12/23 06:05:19;;;;;;;106.10;61.17;;;6.90;99.70;;;;;;5112449;28;20190;-81
2020/12/23 06:07:48;;;;;;;109.20;63.65;;;6.90;99.70;;;;;;5113817;28;20176;-80
2020/12/23 06:10:24;;;;;;;106.28;59.03;;;6.90;99.50;;;;;;5113898;28;20200;-82
2020/12/23 06:12:56;;;;;;;104.78;62.00;;;6.80;99.20;;;;;;5113691;28;20167;-82
2020/12/23 06:15:29;;;;;;;108.80;64.22;;;6.80;98.90;;;;;;5112274;28;20211;-83
2020/12/23 06:17:59;;;;;;;107.30;61.47;;;6.80;99.60;;;;;;5113615;28;20167;-82
2020/12/23 06:20:30;;;;;;;99.70;59.05;;;6.70;99.40;;;;;;5112341;28;20599;-82
2020/12/23 06:22:57;;;;;;;106.55;62.80;;;6.60;99.50;;;;;;5113581;28;20204;-82
2020/12/23 06:25:31;;;;;;;112.90;63.33;;;6.80;99.20;;;;;;5113636;28;20179;-83
2020/12/23 06:28:03;;;;;;;86.10;55.38;;;6.80;99.00;;;;;;5113519;28;20528;-82
2020/12/23 06:30:30;;;;;;;97.13;57.38;;;6.80;97.90;;;;;;5112242;28;20536;-83
2020/12/23 06:33:08;;;;;;;99.85;58.88;;;6.80;98.40;;;;;;5113400;28;20538;-82
2020/12/23 06:35:36;;;;;;;99.30;64.85;;;6.80;98.40;;;;;;5112123;28;20204;-82
2020/12/23 06:38:22;;;;;;;99.07;60.70;;;6.70;98.20;;;;;;5113353;28;20176;-82
2020/12/23 06:41:00;;;;;;;114.18;64.75;;;6.70;98.40;;;;;;5112166;28;20294;-82
2020/12/23 06:43:58;;;;;;;112.88;65.18;;;6.70;99.30;;;;;;5112065;28;20635;-82
2020/12/23 06:46:23;;;;;;;123.82;69.30;;;6.80;99.30;;;;;;5112188;28;20183;-82
2020/12/23 06:49:13;;;;;;;110.70;65.70;;;6.80;99.30;;;;;;5114386;28;20179;-80
2020/12/23 06:51:44;;;;;;;116.43;69.72;;;6.80;99.40;;;;;;5116949;27;20266;-80
2020/12/23 06:54:30;;;;;;;117.68;66.38;;;6.80;99.50;;;;;;5117255;28;20165;-81
2020/12/23 06:56:55;;;;;;;116.15;68.85;;;6.90;99.40;;;;;;5116957;28;20186;-80
2020/12/23 06:59:46;;;;;;;119.00;68.70;;;6.90;99.60;;;;;;5116006;28;20258;-80
2020/12/23 07:02:15;;;;;;;127.57;72.72;;;6.80;99.50;;;;;;5117173;28;20175;-82
2020/12/23 07:04:56;;;;;;;116.30;69.55;;;6.80;99.60;;;;;;5116129;28;20172;-83
2020/12/23 07:07:39;;;;;;;124.10;68.68;;;6.80;99.70;;;;;;5114887;28;20180;-83
2020/12/23 07:10:24;;;;;;;130.32;73.35;;;6.90;99.60;;;;;;5115351;28;20190;-81
2020/12/23 07:12:56;;;;;;;140.77;85.43;;;7.00;99.80;;;;;;5116672;28;20179;-81
2020/12/23 07:15:27;;;;;;;139.88;82.00;;;7.00;99.60;;;;;;5110500;28;20638;-81
2020/12/23 07:18:09;;;;;;;146.68;94.88;;;7.00;99.70;;;;;;5114143;28;20172;-80
2020/12/23 07:20:39;;;;;;;141.48;86.30;;;7.00;99.60;;;;;;5114728;28;20655;-80
2020/12/23 07:23:10;;;;;;;136.63;84.82;;;7.00;99.60;;;;;;5111776;28;20260;-81
2020/12/23 07:25:56;;;;;;;129.57;78.28;;;7.00;99.60;;;;;;5103936;28;20186;-81
2020/12/23 07:28:48;;;;;;;158.50;98.00;;;7.20;99.10;;;;;;5114741;28;20191;-80
2020/12/23 07:31:14;;;;;;;140.15;85.05;;;7.30;99.10;;;;;;5114930;28;20207;-80
2020/12/23 07:33:42;;;;;;;122.17;76.97;;;7.30;98.80;;;;;;5116239;28;20211;-80
2020/12/23 07:36:11;;;;;;;115.05;71.80;;;7.30;98.90;;;;;;5116212;28;20238;-81
2020/12/23 07:38:54;;;;;;;110.25;66.95;;;7.20;99.10;;;;;;5116229;28;20187;-81
2020/12/23 07:41:22;;;;;;;113.38;71.40;;;7.20;99.00;;;;;;5116401;28;20209;-80
2020/12/23 07:43:50;;;;;;;111.75;67.47;;;7.40;98.80;;;;;;5114803;28;20180;-80
2020/12/23 07:46:22;;;;;;;101.95;63.45;;;7.60;99.10;;;;;;5115800;28;20184;-81
2020/12/23 07:48:48;;;;;;;105.00;65.72;;;7.70;99.00;;;;;;5113329;28;20328;-79
2020/12/23 07:51:14;;;;;;;103.97;71.93;;;7.80;98.10;;;;;;5111068;28;20231;-86
2020/12/23 07:53:39;;;;;;;102.33;67.80;;;7.90;98.20;;;;;;5108204;28;20206;-85
2020/12/23 07:56:05;;;;;;;110.87;74.50;;;8.00;97.60;;;;;;5105339;28;20239;-84
2020/12/23 07:58:35;;;;;;;103.38;64.18;;;8.00;98.00;;;;;;5107205;28;20198;-85
2020/12/23 08:01:01;;;;;;;106.55;64.35;;;8.00;97.70;;;;;;5110155;28;20180;-82
2020/12/23 08:03:31;;;;;;;88.30;58.67;;;8.00;97.80;;;;;;5114494;28;20275;-81
2020/12/23 08:06:22;;;;;;;90.85;57.90;;;7.90;98.00;;;;;;5116061;28;20908;-81
2020/12/23 08:08:48;;;;;;;96.38;61.17;;;8.30;97.80;;;;;;5114434;28;20262;-82
2020/12/23 08:11:16;;;;;;;80.50;54.97;;;8.60;97.30;;;;;;5102521;28;20223;-82
2020/12/23 08:13:43;;;;;;;87.95;62.00;;;8.70;96.20;;;;;;5093650;28;20253;-79
2020/12/23 08:16:15;;;;;;;84.55;54.67;;;8.60;95.80;;;;;;5106765;28;20276;-78
2020/12/23 08:18:44;;;;;;;84.85;58.55;;;8.50;96.20;;;;;;5111065;28;20179;-78
2020/12/23 08:21:16;;;;;;;91.55;58.42;;;8.40;96.90;;;;;;5110726;27;20191;-78
2020/12/23 08:23:46;;;;;;;89.70;56.00;;;8.30;97.30;;;;;;5109755;28;20191;-78
2020/12/23 08:26:12;;;;;;;91.65;57.15;;;8.40;97.20;;;;;;5109863;28;20198;-78
2020/12/23 08:28:43;;;;;;;90.22;57.15;;;8.20;97.40;;;;;;5109134;28;20179;-78
2020/12/23 08:31:33;;;;;;;82.75;57.40;;;8.30;97.40;;;;;;5097090;28;20231;-78
2020/12/23 08:34:03;;;;;;;86.47;58.70;;;8.20;97.70;;;;;;5098057;28;20204;-78
2020/12/23 08:36:33;;;;;;;85.90;56.08;;;8.60;97.10;;;;;;5098615;28;20265;-78
2020/12/23 08:39:03;;;;;;;94.47;61.10;;;9.10;96.20;;;;;;5090483;28;20315;-78
2020/12/23 08:41:31;;;;;;;98.68;69.53;;;9.40;94.90;;;;;;5105428;28;20657;-78
2020/12/23 08:44:50;;;;;;;95.18;67.90;;;9.40;94.60;;;;;;5108599;27;20183;-78
2020/12/23 08:47:30;;;;;;;73.03;53.75;;;9.50;94.70;;;;;;5091907;28;20189;-78
2020/12/23 08:50:10;;;;;;;81.00;57.63;;;9.50;94.90;;;;;;5094922;28;20645;-78
2020/12/23 08:52:45;;;;;;;76.75;52.03;;;9.40;95.30;;;;;;5108652;28;20214;-78
2020/12/23 08:55:25;;;;;;;71.07;52.40;;;10.00;94.90;;;;;;5107908;28;21209;-78
2020/12/23 08:57:52;;;;;;;72.60;53.75;;;10.50;93.50;;;;;;5096265;28;20267;-78
2020/12/23 09:00:25;;;;;;;95.63;64.35;;;10.60;92.30;;;;;;5089624;28;20200;-78
2020/12/23 09:02:53;;;;;;;72.00;53.80;;;10.60;92.30;;;;;;5095822;28;20184;-78
2020/12/23 09:05:27;;;;;;;64.63;49.95;;;11.00;91.60;;;;;;5098109;28;20185;-79
2020/12/23 09:08:18;;;;;;;73.53;54.10;;;11.10;90.50;;;;;;5092415;28;20463;-81
2020/12/23 09:10:56;;;;;;;74.63;55.90;;;11.00;90.90;;;;;;5106952;28;20210;-79
2020/12/23 09:13:34;;;;;;;537.30;275.23;;;10.80;91.70;;;;;;5109896;28;20164;-76
2020/12/23 09:16:05;;;;;;;140.27;91.75;;;10.80;92.30;;;;;;5105434;28;20675;-77
2020/12/23 09:18:34;;;;;;;62.92;47.50;;;11.00;91.80;;;;;;5111014;28;20627;-78
2020/12/23 09:21:03;;;;;;;63.55;45.38;;;11.10;91.10;;;;;;5099311;28;20180;-79
2020/12/23 09:23:32;;;;;;;84.55;66.13;;;11.20;90.70;;;;;;5095378;28;20184;-76
2020/12/23 09:26:03;;;;;;;73.30;56.58;;;11.10;91.00;;;;;;5093606;28;20180;-76
2020/12/23 09:28:41;;;;;;;68.87;52.30;;;10.80;92.20;;;;;;5097941;28;20651;-76
2020/12/23 09:31:09;;;;;;;58.70;47.05;;;11.00;92.60;;;;;;5102021;28;20436;-82
2020/12/23 09:33:40;;;;;;;39.78;34.00;;;10.80;93.60;;;;;;5099381;28;20176;-78
2020/12/23 09:36:10;;;;;;;35.80;30.57;;;11.40;90.40;;;;;;5094212;28;20777;-77
2020/12/23 09:38:36;;;;;;;38.43;30.93;;;12.00;87.80;;;;;;5111074;28;20396;-76
2020/12/23 09:41:04;;;;;;;38.60;31.37;;;12.40;85.70;;;;;;5109966;28;20424;-78
2020/12/23 09:43:32;;;;;;;35.77;29.33;;;12.30;86.30;;;;;;5095483;28;20275;-78
2020/12/23 09:46:08;;;;;;;36.23;29.10;;;12.30;84.50;;;;;;5108908;28;21133;-77
2020/12/23 09:48:42;;;;;;;39.87;34.00;;;12.40;83.60;;;;;;5101110;28;20474;-78
2020/12/23 09:51:11;;;;;;;41.07;32.40;;;12.20;83.70;;;;;;5102438;28;20474;-77
2020/12/23 09:53:36;;;;;;;41.73;31.43;;;12.30;84.40;;;;;;5109240;28;20415;-77
2020/12/23 09:56:08;;;;;;;37.03;28.70;;;12.80;81.30;;;;;;5108346;28;20459;-77
2020/12/23 09:58:33;;;;;;;34.63;28.93;;;13.20;79.80;;;;;;5109278;28;20194;-77
2020/12/23 10:00:59;;;;;;;32.83;26.87;;;13.20;78.10;;;;;;5097310;28;20425;-79
2020/12/23 10:03:24;;;;;;;38.07;31.00;;;13.50;77.80;;;;;;5089672;28;20173;-77
2020/12/23 10:05:56;;;;;;;36.03;28.67;;;13.60;76.30;;;;;;5107657;28;20626;-78
2020/12/23 10:08:24;;;;;;;32.33;28.73;;;13.80;76.30;;;;;;5108067;28;20271;-78
2020/12/23 10:10:50;;;;;;;31.97;28.57;;;14.30;74.70;;;;;;5098763;28;20951;-78
2020/12/23 10:13:15;;;;;;;31.10;27.47;;;14.20;73.60;;;;;;5087681;28;20443;-78
2020/12/23 10:15:41;;;;;;;35.03;29.73;;;14.40;72.10;;;;;;5097617;28;20228;-77
2020/12/23 10:18:07;;;;;;;34.77;30.97;;;14.20;74.20;;;;;;5108732;28;20184;-77
2020/12/23 10:20:35;;;;;;;31.13;27.00;;;14.20;73.20;;;;;;5095438;28;20173;-77
2020/12/23 10:23:01;;;;;;;30.70;26.43;;;14.40;73.40;;;;;;5090358;28;20264;-77
2020/12/23 10:25:26;;;;;;;28.03;24.47;;;14.70;71.80;;;;;;5104997;28;20515;-78
2020/12/23 10:27:55;;;;;;;24.90;22.27;;;14.50;71.80;;;;;;5115847;28;20179;-78
2020/12/23 10:30:23;;;;;;;25.60;22.40;;;14.40;71.80;;;;;;5113167;28;20565;-77
2020/12/23 10:32:49;;;;;;;22.83;20.43;;;14.60;72.10;;;;;;5095191;28;20475;-77
2020/12/23 10:35:14;;;;;;;26.97;23.80;;;14.50;71.10;;;;;;5105089;28;20460;-78
2020/12/23 10:37:40;;;;;;;24.33;21.57;;;14.30;72.10;;;;;;5105381;28;20233;-78
2020/12/23 10:40:08;;;;;;;24.63;21.63;;;14.00;73.30;;;;;;5103633;28;20200;-78
2020/12/23 10:42:34;;;;;;;21.37;18.43;;;14.10;74.50;;;;;;5104896;28;20183;-78
2020/12/23 10:45:00;;;;;;;20.37;18.20;;;14.10;72.70;;;;;;5111026;28;20427;-78
2020/12/23 10:47:29;;;;;;;21.93;19.73;;;14.30;72.80;;;;;;5110400;28;20180;-78
2020/12/23 10:49:54;;;;;;;28.10;25.27;;;14.20;72.90;;;;;;5111844;28;20256;-78
2020/12/23 10:52:20;;;;;;;22.47;20.00;;;14.20;72.80;;;;;;5106726;28;20492;-78
2020/12/23 10:55:01;;;;;;;19.37;17.43;;;14.30;72.30;;;;;;5108901;28;20187;-78
2020/12/23 10:57:33;;;;;;;18.33;16.00;;;14.10;72.30;;;;;;5111150;28;20431;-78
2020/12/23 11:00:02;;;;;;;27.17;24.10;;;14.20;71.90;;;;;;5113886;28;20440;-78
2020/12/23 11:02:27;;;;;;;18.47;16.57;;;14.10;71.80;;;;;;5111325;28;20431;-78
2020/12/23 11:04:53;;;;;;;154.33;115.63;;;14.20;71.70;;;;;;5114484;28;20495;-78
2020/12/23 11:07:18;;;;;;;35.23;31.43;;;14.20;72.90;;;;;;5112945;28;20183;-77
2020/12/23 11:09:44;;;;;;;30.80;27.60;;;14.20;72.80;;;;;;5111619;28;20199;-78
2020/12/23 11:12:13;;;;;;;30.43;27.17;;;14.30;72.50;;;;;;5114073;28;20182;-78
2020/12/23 11:14:39;;;;;;;18.53;16.60;;;14.20;73.10;;;;;;5112972;27;20439;-78
2020/12/23 11:17:07;;;;;;;16.17;14.57;;;14.30;71.60;;;;;;5113962;28;20415;-77
2020/12/23 11:19:39;;;;;;;20.80;18.60;;;14.30;71.90;;;;;;5111527;28;20588;-77
2020/12/23 11:22:05;;;;;;;18.50;16.60;;;14.50;72.00;;;;;;5101133;28;21606;-78
2020/12/23 11:24:30;;;;;;;14.70;12.90;;;14.40;72.50;;;;;;5094575;28;20421;-77
2020/12/23 11:26:56;;;;;;;17.87;16.10;;;14.30;71.20;;;;;;5113627;28;20176;-78
2020/12/23 11:29:21;;;;;;;15.97;14.43;;;14.30;71.40;;;;;;5114291;28;20179;-77
2020/12/23 11:31:54;;;;;;;18.97;15.67;;;14.40;72.10;;;;;;5112750;28;20176;-78
2020/12/23 11:34:22;;;;;;;15.97;13.57;;;14.60;70.80;;;;;;5113626;28;20238;-78
2020/12/23 11:36:55;;;;;;;18.30;16.43;;;14.50;71.20;;;;;;5112379;28;20447;-78
2020/12/23 11:39:21;;;;;;;19.00;17.10;;;14.50;71.10;;;;;;5106686;28;20424;-78
2020/12/23 11:41:47;;;;;;;17.23;15.17;;;14.60;71.40;;;;;;5107719;28;20424;-78
2020/12/23 11:44:12;;;;;;;18.97;17.07;;;14.70;70.50;;;;;;5114553;28;20203;-78
2020/12/23 11:46:46;;;;;;;16.40;14.70;;;15.00;69.90;;;;;;5103822;28;20196;-78
2020/12/23 11:49:14;;;;;;;15.77;14.13;;;15.00;69.70;;;;;;5103946;28;20187;-77
2020/12/23 11:51:40;;;;;;;21.07;14.67;;;15.00;69.30;;;;;;5103124;28;20464;-77
2020/12/23 11:54:08;;;;;;;17.50;15.80;;;15.00;69.60;;;;;;5096077;28;20416;-78
2020/12/23 11:56:34;;;;;;;16.00;14.30;;;14.80;69.50;;;;;;5112661;28;20467;-78
2020/12/23 11:59:00;;;;;;;18.80;16.80;;;14.50;70.00;;;;;;5113983;28;20460;-78
2020/12/23 12:01:26;;;;;;;20.17;17.43;;;14.30;71.10;;;;;;5109780;28;20420;-77
2020/12/23 12:03:51;;;;;;;19.33;17.17;;;14.40;71.40;;;;;;5093454;28;20685;-78
2020/12/23 12:06:18;;;;;;;17.50;15.70;;;14.10;72.50;;;;;;5103280;28;20184;-78
2020/12/23 12:08:44;;;;;;;23.10;20.90;;;14.10;72.50;;;;;;5113109;28;20651;-78
2020/12/23 12:11:16;;;;;;;22.00;18.77;;;14.10;73.40;;;;;;5112253;28;20468;-77
2020/12/23 12:13:45;;;;;;;20.30;16.57;;;14.40;72.80;;;;;;5106403;28;20753;-78
2020/12/23 12:16:11;;;;;;;19.70;17.30;;;14.60;71.90;;;;;;5103948;28;20492;-78
2020/12/23 12:18:37;;;;;;;17.97;15.63;;;14.50;71.70;;;;;;5102834;28;20951;-77
2020/12/23 12:21:03;;;;;;;22.63;19.00;;;14.70;71.40;;;;;;5102348;28;20648;-77
2020/12/23 12:23:28;;;;;;;31.73;24.80;;;14.60;72.00;;;;;;5095662;28;20220;-78
2020/12/23 12:25:54;;;;;;;21.90;17.47;;;14.70;71.80;;;;;;5097961;28;20211;-78
2020/12/23 12:28:22;;;;;;;20.37;18.10;;;14.90;71.10;;;;;;5097358;28;20188;-77
2020/12/23 12:30:48;;;;;;;23.17;20.93;;;14.90;71.20;;;;;;5102186;28;20191;-77
2020/12/23 12:33:16;;;;;;;23.30;19.47;;;14.90;71.10;;;;;;5094011;28;20421;-77
2020/12/23 12:35:48;;;;;;;18.37;16.03;;;15.00;70.80;;;;;;5097774;28;20345;-78
2020/12/23 12:38:17;;;;;;;22.63;16.13;;;15.10;70.10;;;;;;5088216;28;20506;-78
2020/12/23 12:40:42;;;;;;;19.87;16.17;;;15.20;69.20;;;;;;5100898;28;20443;-77